Time;durP1;ratioP1;P1;durP2;ratioP2;P2;SDS_P1;SDS_P2;PMS_P1;PMS_P2;Temp;Humidity;BMP_temperature;BMP_pressure;BME280_temperature;BME280_humidity;BME280_pressure;Samples;Min_cycle;Max_cycle;Signal;HPM_P1;HPM_P2
2021/09/04 00:00:01;;;;;;;16.67;4.75;;;;;;;;;;5050177;28;20025;-44
2021/09/04 00:02:26;;;;;;;12.50;6.00;;;;;;;;;;5052267;28;20017;-47
2021/09/04 00:04:51;;;;;;;7.30;4.38;;;;;;;;;;5050802;28;20017;-46
2021/09/04 00:07:17;;;;;;;19.98;6.40;;;;;;;;;;5046444;28;20028;-44
2021/09/04 00:09:42;;;;;;;6.68;5.05;;;;;;;;;;5042233;28;20433;-46
2021/09/04 00:12:08;;;;;;;10.93;4.82;;;;;;;;;;5054426;28;20087;-47
2021/09/04 00:14:34;;;;;;;10.43;5.88;;;;;;;;;;5045879;28;20021;-43
2021/09/04 00:16:59;;;;;;;10.07;6.63;;;;;;;;;;5044510;28;20025;-43
2021/09/04 00:19:25;;;;;;;14.38;3.80;;;;;;;;;;5055303;28;20017;-44
2021/09/04 00:21:50;;;;;;;8.35;3.92;;;;;;;;;;5054968;28;20396;-46
2021/09/04 00:24:15;;;;;;;8.52;4.32;;;;;;;;;;5053491;28;20553;-43
2021/09/04 00:26:41;;;;;;;18.52;5.50;;;;;;;;;;5049550;28;20025;-47
2021/09/04 00:29:06;;;;;;;12.77;4.63;;;;;;;;;;5049149;28;20270;-44
2021/09/04 00:31:31;;;;;;;12.93;3.70;;;;;;;;;;5044290;28;20056;-46
2021/09/04 00:33:57;;;;;;;9.38;5.40;;;;;;;;;;5052119;28;20029;-47
2021/09/04 00:36:22;;;;;;;12.07;4.82;;;;;;;;;;5049510;28;20028;-46
2021/09/04 00:38:47;;;;;;;11.88;5.45;;;;;;;;;;5048727;28;20048;-47
2021/09/04 00:41:17;;;;;;;10.52;4.20;;;;;;;;;;5049560;28;20539;-46
2021/09/04 00:43:42;;;;;;;12.33;3.93;;;;;;;;;;5050199;28;20037;-47
2021/09/04 00:46:08;;;;;;;27.13;4.72;;;;;;;;;;5051770;28;20338;-45
2021/09/04 00:48:34;;;;;;;12.43;5.30;;;;;;;;;;5055121;28;20035;-46
2021/09/04 00:50:59;;;;;;;13.18;4.07;;;;;;;;;;5050174;28;20664;-46
2021/09/04 00:53:24;;;;;;;9.35;4.25;;;;;;;;;;5049759;28;20017;-42
2021/09/04 00:55:50;;;;;;;10.52;5.20;;;;;;;;;;5054911;28;20382;-43
2021/09/04 00:58:15;;;;;;;11.98;4.68;;;;;;;;;;5057125;28;20025;-46
2021/09/04 01:00:41;;;;;;;18.40;5.32;;;;;;;;;;5053620;28;20040;-42
2021/09/04 01:03:06;;;;;;;10.52;4.65;;;;;;;;;;5059981;28;20028;-44
2021/09/04 01:05:31;;;;;;;7.07;4.72;;;;;;;;;;5048455;28;20027;-43
2021/09/04 01:07:57;;;;;;;8.65;5.38;;;;;;;;;;5054605;28;20013;-42
2021/09/04 01:10:22;;;;;;;13.68;4.75;;;;;;;;;;5056844;28;21646;-42
2021/09/04 01:12:48;;;;;;;7.95;4.50;;;;;;;;;;5053186;28;20102;-42
2021/09/04 01:15:14;;;;;;;16.73;7.25;;;;;;;;;;5053042;28;20025;-44
2021/09/04 01:17:39;;;;;;;9.68;4.55;;;;;;;;;;5057010;28;20016;-46
2021/09/04 01:20:05;;;;;;;13.43;5.13;;;;;;;;;;5058328;28;20020;-47
2021/09/04 01:22:31;;;;;;;6.97;4.32;;;;;;;;;;5057600;28;20019;-44
2021/09/04 01:24:59;;;;;;;13.65;5.40;;;;;;;;;;5053421;28;20027;-47
2021/09/04 01:27:25;;;;;;;11.85;5.70;;;;;;;;;;5050787;28;20548;-44
2021/09/04 01:29:50;;;;;;;6.93;4.35;;;;;;;;;;5047439;28;20107;-41
2021/09/04 01:32:15;;;;;;;11.75;4.25;;;;;;;;;;5055130;28;20009;-44
2021/09/04 01:34:40;;;;;;;11.25;4.25;;;;;;;;;;5052018;28;20029;-43
2021/09/04 01:37:06;;;;;;;15.52;4.68;;;;;;;;;;5047626;28;20552;-42
2021/09/04 01:39:31;;;;;;;10.55;5.70;;;;;;;;;;5054576;28;20052;-43
2021/09/04 01:41:57;;;;;;;22.63;5.65;;;;;;;;;;5052546;28;20384;-43
2021/09/04 01:44:22;;;;;;;14.68;5.18;;;;;;;;;;5057180;28;20447;-42
2021/09/04 01:46:47;;;;;;;5.90;3.65;;;;;;;;;;5055413;28;20051;-44
2021/09/04 01:49:13;;;;;;;11.93;5.63;;;;;;;;;;5050717;28;20024;-46
2021/09/04 01:51:38;;;;;;;11.02;5.28;;;;;;;;;;5057477;28;20044;-47
2021/09/04 01:54:03;;;;;;;15.93;5.63;;;;;;;;;;5055738;28;20029;-46
2021/09/04 01:56:29;;;;;;;8.73;4.20;;;;;;;;;;5058502;28;20021;-47
2021/09/04 01:58:54;;;;;;;16.88;5.75;;;;;;;;;;5055230;28;20083;-46
2021/09/04 02:01:19;;;;;;;21.83;5.60;;;;;;;;;;5055019;28;20051;-45
2021/09/04 02:03:45;;;;;;;7.70;4.15;;;;;;;;;;5053751;28;20025;-43
2021/09/04 02:06:10;;;;;;;11.18;5.97;;;;;;;;;;5051608;28;20020;-43
2021/09/04 02:08:35;;;;;;;6.47;5.05;;;;;;;;;;5052255;28;20028;-43
2021/09/04 02:11:01;;;;;;;9.82;4.72;;;;;;;;;;5054442;28;20066;-44
2021/09/04 02:13:27;;;;;;;7.00;5.30;;;;;;;;;;5051276;28;20025;-44
2021/09/04 02:15:53;;;;;;;9.80;5.40;;;;;;;;;;5054141;28;20111;-44
2021/09/04 02:18:20;;;;;;;11.13;6.60;;;;;;;;;;5056333;28;20025;-44
2021/09/04 02:20:45;;;;;;;9.63;5.53;;;;;;;;;;5051406;28;20020;-44
2021/09/04 02:23:11;;;;;;;11.63;5.88;;;;;;;;;;5054649;28;20031;-44
2021/09/04 02:25:36;;;;;;;31.02;6.63;;;;;;;;;;5048115;28;20029;-45
2021/09/04 02:28:02;;;;;;;15.00;6.13;;;;;;;;;;5051769;28;20028;-45
2021/09/04 02:30:27;;;;;;;8.32;5.05;;;;;;;;;;5050744;28;20362;-44
2021/09/04 02:32:53;;;;;;;14.95;5.20;;;;;;;;;;5046600;28;20480;-45
2021/09/04 02:35:18;;;;;;;16.20;5.28;;;;;;;;;;5052170;28;20508;-41
2021/09/04 02:37:43;;;;;;;15.20;5.95;;;;;;;;;;5047368;28;20017;-42
2021/09/04 02:40:09;;;;;;;8.73;4.97;;;;;;;;;;5048912;28;20045;-45
2021/09/04 02:42:34;;;;;;;12.50;6.07;;;;;;;;;;5053765;28;20571;-43
2021/09/04 02:44:59;;;;;;;15.68;6.20;;;;;;;;;;5058391;28;20017;-42
2021/09/04 02:47:25;;;;;;;13.13;5.40;;;;;;;;;;5053926;28;20036;-42
2021/09/04 02:49:50;;;;;;;10.75;7.07;;;;;;;;;;5058238;28;20104;-41
2021/09/04 02:52:15;;;;;;;13.60;5.60;;;;;;;;;;5048287;28;20468;-44
2021/09/04 02:54:41;;;;;;;10.15;5.93;;;;;;;;;;5052298;28;20055;-44
2021/09/04 02:57:07;;;;;;;12.02;4.88;;;;;;;;;;5049297;28;20033;-46
2021/09/04 02:59:32;;;;;;;13.93;5.25;;;;;;;;;;5053160;28;20091;-42
2021/09/04 03:01:58;;;;;;;9.38;5.97;;;;;;;;;;5050124;28;20481;-43
2021/09/04 03:04:23;;;;;;;14.43;5.72;;;;;;;;;;5050765;28;20380;-44
2021/09/04 03:06:48;;;;;;;18.13;4.93;;;;;;;;;;5049784;28;20029;-47
2021/09/04 03:09:14;;;;;;;11.82;4.53;;;;;;;;;;5045513;28;20465;-44
2021/09/04 03:11:39;;;;;;;10.30;4.93;;;;;;;;;;5042851;28;20048;-42
2021/09/04 03:14:04;;;;;;;4.72;4.25;;;;;;;;;;5050534;28;20027;-45
2021/09/04 03:16:30;;;;;;;13.18;5.78;;;;;;;;;;5054558;28;20129;-41
2021/09/04 03:18:55;;;;;;;13.65;5.88;;;;;;;;;;5050960;28;20032;-42
2021/09/04 03:21:20;;;;;;;18.58;6.78;;;;;;;;;;5052578;28;20098;-43
2021/09/04 03:23:46;;;;;;;23.50;6.57;;;;;;;;;;5052565;28;20070;-42
2021/09/04 03:26:11;;;;;;;10.27;5.40;;;;;;;;;;5049921;28;20035;-42
2021/09/04 03:28:36;;;;;;;8.05;5.05;;;;;;;;;;5054670;28;20117;-44
2021/09/04 03:31:02;;;;;;;8.93;5.88;;;;;;;;;;5047169;28;20110;-42
2021/09/04 03:33:27;;;;;;;14.10;7.18;;;;;;;;;;5051226;28;20016;-43
2021/09/04 03:35:52;;;;;;;13.90;7.50;;;;;;;;;;5052948;28;20106;-43
2021/09/04 03:38:18;;;;;;;14.18;7.55;;;;;;;;;;5052702;28;20652;-41
2021/09/04 03:40:43;;;;;;;13.70;7.57;;;;;;;;;;5052452;28;20118;-43
2021/09/04 03:43:08;;;;;;;16.55;6.07;;;;;;;;;;5048929;28;20031;-47
2021/09/04 03:45:34;;;;;;;20.23;5.85;;;;;;;;;;5052560;28;20103;-44
2021/09/04 03:47:59;;;;;;;4.85;3.35;;;;;;;;;;5052781;28;20031;-46
2021/09/04 03:50:25;;;;;;;8.88;5.35;;;;;;;;;;5052718;28;20024;-45
2021/09/04 03:52:50;;;;;;;10.30;4.07;;;;;;;;;;5054705;28;20028;-42
2021/09/04 03:55:15;;;;;;;14.55;4.45;;;;;;;;;;5054418;28;20021;-42
2021/09/04 03:57:41;;;;;;;4.95;3.63;;;;;;;;;;5055388;28;20040;-41
2021/09/04 04:00:06;;;;;;;16.55;4.95;;;;;;;;;;5052455;28;20075;-42
2021/09/04 04:02:32;;;;;;;9.20;3.55;;;;;;;;;;5051192;28;20053;-41
2021/09/04 04:04:57;;;;;;;14.85;6.55;;;;;;;;;;5051916;28;20070;-41
2021/09/04 04:07:22;;;;;;;11.15;3.65;;;;;;;;;;5046145;28;20444;-41
2021/09/04 04:09:48;;;;;;;8.35;4.35;;;;;;;;;;5051028;28;20101;-41
2021/09/04 04:12:14;;;;;;;9.32;3.95;;;;;;;;;;5048795;28;20059;-43
2021/09/04 04:14:39;;;;;;;11.10;4.07;;;;;;;;;;5052725;28;20021;-43
2021/09/04 04:17:05;;;;;;;7.97;3.10;;;;;;;;;;5051650;28;20020;-45
2021/09/04 04:19:30;;;;;;;17.48;4.35;;;;;;;;;;5051244;28;20108;-44
2021/09/04 04:21:56;;;;;;;9.68;4.28;;;;;;;;;;5049921;28;20504;-42
2021/09/04 04:24:21;;;;;;;18.80;4.70;;;;;;;;;;5051751;28;20017;-42
2021/09/04 04:26:46;;;;;;;22.08;4.55;;;;;;;;;;5050060;28;20025;-42
2021/09/04 04:29:12;;;;;;;5.85;3.72;;;;;;;;;;5052936;28;20100;-44
2021/09/04 04:31:38;;;;;;;23.73;6.72;;;;;;;;;;5050157;28;20396;-42
2021/09/04 04:34:04;;;;;;;22.40;7.20;;;;;;;;;;5056801;28;20033;-41
2021/09/04 04:36:29;;;;;;;21.60;7.38;;;;;;;;;;5054494;28;20050;-43
2021/09/04 04:38:54;;;;;;;8.98;6.10;;;;;;;;;;5050037;28;20024;-44
2021/09/04 04:41:20;;;;;;;20.05;6.38;;;;;;;;;;5055719;28;20056;-43
2021/09/04 04:43:45;;;;;;;17.20;5.07;;;;;;;;;;5051900;28;20421;-42
2021/09/04 04:46:10;;;;;;;12.85;4.85;;;;;;;;;;5057022;28;20064;-44
2021/09/04 04:48:36;;;;;;;19.23;6.32;;;;;;;;;;5050775;28;20017;-43
2021/09/04 04:51:02;;;;;;;8.10;3.97;;;;;;;;;;5052099;28;20072;-43
2021/09/04 04:53:27;;;;;;;17.13;4.97;;;;;;;;;;5052025;28;20415;-42
2021/09/04 04:55:52;;;;;;;11.73;4.50;;;;;;;;;;5052598;28;20017;-43
2021/09/04 04:58:17;;;;;;;10.40;5.72;;;;;;;;;;5049744;28;20028;-41
2021/09/04 05:00:43;;;;;;;15.30;4.72;;;;;;;;;;5052956;28;20050;-44
2021/09/04 05:03:08;;;;;;;19.13;5.40;;;;;;;;;;5048490;28;20025;-42
2021/09/04 05:05:34;;;;;;;12.82;4.68;;;;;;;;;;5050564;28;20032;-41
2021/09/04 05:07:59;;;;;;;14.82;4.38;;;;;;;;;;5045907;28;20098;-44
2021/09/04 05:10:25;;;;;;;11.90;5.93;;;;;;;;;;5051910;28;20108;-42
2021/09/04 05:12:50;;;;;;;8.32;3.95;;;;;;;;;;5051113;28;20025;-43
2021/09/04 05:15:15;;;;;;;6.15;4.05;;;;;;;;;;5046729;28;20044;-41
2021/09/04 05:17:40;;;;;;;8.55;3.63;;;;;;;;;;5051841;28;20417;-42
2021/09/04 05:20:06;;;;;;;7.88;5.32;;;;;;;;;;5048455;28;20032;-41
2021/09/04 05:22:31;;;;;;;7.45;4.75;;;;;;;;;;5046900;28;20060;-44
2021/09/04 05:24:57;;;;;;;16.95;5.43;;;;;;;;;;5045747;28;20390;-40
2021/09/04 05:27:22;;;;;;;11.55;4.22;;;;;;;;;;5041893;28;20667;-44
2021/09/04 05:29:47;;;;;;;6.30;3.72;;;;;;;;;;5050464;28;20010;-42
2021/09/04 05:32:13;;;;;;;9.00;4.93;;;;;;;;;;5048019;28;20017;-43
2021/09/04 05:34:38;;;;;;;6.45;4.40;;;;;;;;;;5049413;28;20037;-41
2021/09/04 05:37:03;;;;;;;6.90;4.07;;;;;;;;;;5048384;28;20021;-42
2021/09/04 05:39:29;;;;;;;7.10;4.60;;;;;;;;;;5052459;28;20400;-43
2021/09/04 05:41:54;;;;;;;5.93;4.57;;;;;;;;;;5054075;28;20084;-44
2021/09/04 05:44:19;;;;;;;8.40;3.92;;;;;;;;;;5059158;28;20075;-41
2021/09/04 05:46:45;;;;;;;12.15;4.57;;;;;;;;;;5057711;28;20029;-41
2021/09/04 05:49:10;;;;;;;6.03;3.75;;;;;;;;;;5046384;28;20020;-42
2021/09/04 05:51:35;;;;;;;11.52;4.50;;;;;;;;;;5045363;28;20472;-43
2021/09/04 05:54:01;;;;;;;8.68;4.55;;;;;;;;;;5049013;28;20467;-41
2021/09/04 05:56:26;;;;;;;7.65;4.22;;;;;;;;;;5059194;28;20554;-41
2021/09/04 05:58:51;;;;;;;10.63;4.00;;;;;;;;;;5056644;28;20028;-41
2021/09/04 06:01:17;;;;;;;10.75;4.70;;;;;;;;;;5054263;28;20196;-43
2021/09/04 06:03:42;;;;;;;7.75;4.57;;;;;;;;;;5056298;28;20029;-41
2021/09/04 06:06:07;;;;;;;9.10;4.85;;;;;;;;;;5052502;28;20096;-45
2021/09/04 06:08:33;;;;;;;4.88;2.90;;;;;;;;;;5050795;28;20016;-43
2021/09/04 06:10:58;;;;;;;8.15;3.50;;;;;;;;;;5054616;28;20021;-44
2021/09/04 06:13:23;;;;;;;8.40;3.90;;;;;;;;;;5052255;28;20031;-45
2021/09/04 06:15:49;;;;;;;7.05;4.15;;;;;;;;;;5055869;28;20031;-43
2021/09/04 06:18:14;;;;;;;9.50;5.82;;;;;;;;;;5054076;28;20032;-45
2021/09/04 06:20:40;;;;;;;12.68;7.10;;;;;;;;;;5051593;28;20167;-42
2021/09/04 06:23:05;;;;;;;7.85;6.25;;;;;;;;;;5057067;28;20128;-40
2021/09/04 06:25:33;;;;;;;9.48;6.57;;;;;;;;;;5056080;28;20032;-41
2021/09/04 06:27:58;;;;;;;12.35;5.68;;;;;;;;;;5052433;28;20017;-42
2021/09/04 06:30:23;;;;;;;15.73;5.85;;;;;;;;;;5056506;28;20020;-42
2021/09/04 06:32:49;;;;;;;18.45;9.05;;;;;;;;;;5052834;28;20072;-44
2021/09/04 06:35:14;;;;;;;9.18;6.20;;;;;;;;;;5055729;28;20495;-46
2021/09/04 06:37:39;;;;;;;11.73;7.07;;;;;;;;;;5053040;28;20381;-42
2021/09/04 06:40:05;;;;;;;6.78;6.10;;;;;;;;;;5055221;28;20052;-44
2021/09/04 06:42:31;;;;;;;11.93;8.25;;;;;;;;;;5054347;28;20029;-43
2021/09/04 06:44:56;;;;;;;19.40;10.35;;;;;;;;;;5055512;28;21012;-41
2021/09/04 06:47:21;;;;;;;28.35;13.32;;;;;;;;;;5047818;28;20029;-41
2021/09/04 06:49:47;;;;;;;26.25;16.27;;;;;;;;;;5050016;28;20021;-42
2021/09/04 06:52:12;;;;;;;23.63;18.05;;;;;;;;;;5047393;28;20025;-40
2021/09/04 06:54:37;;;;;;;21.80;13.93;;;;;;;;;;5053526;28;20107;-41
2021/09/04 06:57:03;;;;;;;17.58;10.50;;;;;;;;;;5054626;28;20031;-44
2021/09/04 06:59:29;;;;;;;39.45;16.00;;;;;;;;;;5054923;28;20122;-45
2021/09/04 07:01:55;;;;;;;21.23;14.50;;;;;;;;;;5049605;28;20059;-45
2021/09/04 07:04:20;;;;;;;19.33;10.20;;;;;;;;;;5056101;28;20057;-41
2021/09/04 07:06:45;;;;;;;9.82;5.60;;;;;;;;;;5053463;28;20029;-43
2021/09/04 07:09:10;;;;;;;7.05;5.28;;;;;;;;;;5055478;28;20021;-45
2021/09/04 07:11:36;;;;;;;7.65;4.57;;;;;;;;;;5056198;28;20072;-42
2021/09/04 07:14:01;;;;;;;8.50;4.28;;;;;;;;;;5052212;28;20024;-40
2021/09/04 07:16:26;;;;;;;4.13;3.35;;;;;;;;;;5050037;28;20063;-44
2021/09/04 07:18:52;;;;;;;6.53;3.80;;;;;;;;;;5052758;28;20032;-45
2021/09/04 07:21:17;;;;;;;9.00;5.03;;;;;;;;;;5054456;28;20312;-42
2021/09/04 07:23:43;;;;;;;9.32;2.92;;;;;;;;;;5051491;28;20127;-45
2021/09/04 07:26:08;;;;;;;7.35;3.63;;;;;;;;;;5055428;28;20481;-45
2021/09/04 07:28:33;;;;;;;7.15;2.90;;;;;;;;;;5053887;28;20021;-43
2021/09/04 07:31:00;;;;;;;4.65;3.88;;;;;;;;;;5047240;28;20432;-46
2021/09/04 07:33:25;;;;;;;13.95;4.15;;;;;;;;;;5050282;28;20103;-46
2021/09/04 07:35:51;;;;;;;14.82;3.83;;;;;;;;;;5054180;28;20099;-43
2021/09/04 07:38:16;;;;;;;16.40;12.68;;;;;;;;;;5054202;28;20032;-41
2021/09/04 07:40:42;;;;;;;25.63;20.88;;;;;;;;;;5051998;28;20068;-41
2021/09/04 07:43:08;;;;;;;10.35;8.52;;;;;;;;;;5053694;28;20020;-44
2021/09/04 07:45:36;;;;;;;15.48;6.05;;;;;;;;;;5050563;28;20096;-43
2021/09/04 07:48:02;;;;;;;16.58;5.05;;;;;;;;;;5050569;28;20020;-46
2021/09/04 07:50:27;;;;;;;10.98;4.70;;;;;;;;;;5053769;28;20110;-43
2021/09/04 07:52:53;;;;;;;11.20;7.40;;;;;;;;;;5046233;28;20017;-45
2021/09/04 07:55:18;;;;;;;12.18;5.63;;;;;;;;;;5048052;28;20052;-45
2021/09/04 07:57:44;;;;;;;13.48;7.43;;;;;;;;;;5057515;28;20020;-43
2021/09/04 08:00:10;;;;;;;6.75;4.13;;;;;;;;;;5054953;28;20028;-43
2021/09/04 08:02:35;;;;;;;8.23;5.10;;;;;;;;;;5048825;28;20040;-42
2021/09/04 08:05:00;;;;;;;7.43;6.65;;;;;;;;;;5051019;28;20540;-43
2021/09/04 08:07:25;;;;;;;4.82;2.95;;;;;;;;;;5050122;28;20029;-39
2021/09/04 08:09:51;;;;;;;5.68;3.25;;;;;;;;;;5053541;28;20026;-41
2021/09/04 08:12:16;;;;;;;3.40;2.78;;;;;;;;;;5054902;28;20017;-41
2021/09/04 08:14:41;;;;;;;9.52;4.53;;;;;;;;;;5054929;28;20490;-43
2021/09/04 08:17:07;;;;;;;10.63;4.47;;;;;;;;;;5051903;28;20044;-41
2021/09/04 08:19:32;;;;;;;5.88;4.72;;;;;;;;;;5053075;28;20067;-42
2021/09/04 08:21:57;;;;;;;10.70;4.90;;;;;;;;;;5050718;28;20029;-61
2021/09/04 08:24:23;;;;;;;10.18;3.75;;;;;;;;;;5047534;28;20480;-60
2021/09/04 08:26:48;;;;;;;18.88;5.97;;;;;;;;;;5047158;28;20075;-60
2021/09/04 08:29:13;;;;;;;10.35;4.78;;;;;;;;;;5054824;28;20688;-60
2021/09/04 08:31:40;;;;;;;5.95;4.30;;;;;;;;;;5046061;28;20988;-60
2021/09/04 08:34:05;;;;;;;5.60;3.38;;;;;;;;;;5052885;28;20096;-60
2021/09/04 08:36:30;;;;;;;9.70;6.07;;;;;;;;;;5052500;28;20119;-59
2021/09/04 08:38:56;;;;;;;4.63;3.17;;;;;;;;;;5051567;28;20029;-60
2021/09/04 08:41:21;;;;;;;6.53;3.80;;;;;;;;;;5052225;28;20415;-59
2021/09/04 08:43:47;;;;;;;6.20;4.13;;;;;;;;;;5055391;28;20021;-58
2021/09/04 08:46:14;;;;;;;10.80;3.65;;;;;;;;;;5052478;28;20031;-60
2021/09/04 08:48:39;;;;;;;4.90;2.28;;;;;;;;;;5053170;28;20573;-60
2021/09/04 08:51:05;;;;;;;5.20;2.70;;;;;;;;;;5050823;28;20115;-60
2021/09/04 08:53:30;;;;;;;3.90;2.15;;;;;;;;;;5053362;28;20097;-60
2021/09/04 08:55:55;;;;;;;10.13;3.15;;;;;;;;;;5055739;28;20029;-59
2021/09/04 08:58:21;;;;;;;5.50;2.53;;;;;;;;;;5049823;28;20017;-59
2021/09/04 09:00:47;;;;;;;2.83;1.85;;;;;;;;;;5052589;28;20499;-59
2021/09/04 09:03:28;;;;;;;7.88;2.40;;;;;;;;;;5053378;28;20488;-60
2021/09/04 09:05:58;;;;;;;4.18;2.13;;;;;;;;;;5049613;28;20032;-59
2021/09/04 09:08:24;;;;;;;3.13;1.58;;;;;;;;;;5051399;28;20023;-61
2021/09/04 09:10:52;;;;;;;5.95;2.30;;;;;;;;;;5052822;28;20471;-61
2021/09/04 09:13:18;;;;;;;8.02;2.22;;;;;;;;;;5054571;28;20519;-62
2021/09/04 09:15:44;;;;;;;4.30;1.52;;;;;;;;;;5051851;28;20024;-61
2021/09/04 09:18:13;;;;;;;2.92;1.17;;;;;;;;;;5052373;28;20074;-61
2021/09/04 09:20:39;;;;;;;11.40;3.30;;;;;;;;;;5052710;28;20013;-61
2021/09/04 09:23:05;;;;;;;4.88;1.70;;;;;;;;;;5055555;28;20059;-60
2021/09/04 09:25:31;;;;;;;9.00;2.33;;;;;;;;;;5050799;28;20017;-61
2021/09/04 09:28:01;;;;;;;7.97;2.80;;;;;;;;;;5050428;28;20028;-62
2021/09/04 09:30:33;;;;;;;13.95;2.83;;;;;;;;;;5051497;28;20013;-62
2021/09/04 09:32:58;;;;;;;5.72;1.83;;;;;;;;;;5057596;28;20499;-62
2021/09/04 09:35:50;;;;;;;9.07;3.92;;;;;;;;;;5055784;28;20472;-61
2021/09/04 09:38:19;;;;;;;12.95;3.08;;;;;;;;;;5050531;28;20516;-62
2021/09/04 09:40:45;;;;;;;3.92;2.30;;;;;;;;;;5052659;28;20067;-62
2021/09/04 09:43:12;;;;;;;9.15;2.17;;;;;;;;;;5050220;28;20029;-62
2021/09/04 09:45:42;;;;;;;8.05;3.25;;;;;;;;;;5056147;28;20580;-62
2021/09/04 09:48:07;;;;;;;3.20;1.38;;;;;;;;;;5056565;28;20028;-62
2021/09/04 09:50:35;;;;;;;7.65;2.95;;;;;;;;;;5048845;28;20461;-61
2021/09/04 09:53:01;;;;;;;4.55;2.38;;;;;;;;;;5046798;28;20355;-61
2021/09/04 09:55:27;;;;;;;10.32;3.10;;;;;;;;;;5055723;28;20028;-61
2021/09/04 09:57:54;;;;;;;10.93;3.40;;;;;;;;;;5051080;28;20025;-62
2021/09/04 10:00:19;;;;;;;11.63;3.08;;;;;;;;;;5049975;28;20470;-62
2021/09/04 10:02:46;;;;;;;7.32;3.63;;;;;;;;;;5051209;28;20125;-61
2021/09/04 10:05:11;;;;;;;11.43;2.63;;;;;;;;;;5056717;28;20082;-61
2021/09/04 10:07:37;;;;;;;11.20;4.07;;;;;;;;;;5058667;28;20029;-60
2021/09/04 10:10:02;;;;;;;5.53;3.95;;;;;;;;;;5057594;28;20063;-60
2021/09/04 10:12:28;;;;;;;4.70;2.25;;;;;;;;;;5052141;28;20074;-60
2021/09/04 10:14:53;;;;;;;21.40;3.92;;;;;;;;;;5054783;28;20024;-58
2021/09/04 10:17:20;;;;;;;5.07;1.98;;;;;;;;;;5054491;28;20079;-61
2021/09/04 10:19:45;;;;;;;6.50;2.47;;;;;;;;;;5054025;28;20020;-60
2021/09/04 10:22:12;;;;;;;6.93;2.42;;;;;;;;;;5057506;28;20021;-61
2021/09/04 10:24:47;;;;;;;9.35;1.67;;;;;;;;;;5056911;28;20033;-62
2021/09/04 10:27:13;;;;;;;10.82;3.88;;;;;;;;;;5052950;28;20021;-61
2021/09/04 10:29:40;;;;;;;4.95;2.35;;;;;;;;;;5054316;28;20095;-60
2021/09/04 10:32:05;;;;;;;3.08;0.77;;;;;;;;;;5054972;28;20017;-61
2021/09/04 10:34:30;;;;;;;12.98;2.13;;;;;;;;;;5046841;28;20025;-61
2021/09/04 10:37:02;;;;;;;2.47;1.17;;;;;;;;;;5056495;28;20667;-60
2021/09/04 10:39:46;;;;;;;4.78;1.75;;;;;;;;;;5050306;28;20074;-61
2021/09/04 10:42:15;;;;;;;5.20;2.88;;;;;;;;;;5053796;28;20076;-60
2021/09/04 10:44:42;;;;;;;5.17;2.03;;;;;;;;;;5053130;28;20020;-61
2021/09/04 10:47:09;;;;;;;8.73;3.55;;;;;;;;;;5055426;28;20506;-61
2021/09/04 10:49:42;;;;;;;6.07;1.88;;;;;;;;;;5040762;28;20099;-61
2021/09/04 10:52:08;;;;;;;10.73;3.15;;;;;;;;;;5041245;28;20444;-61
2021/09/04 10:54:36;;;;;;;5.90;2.40;;;;;;;;;;5049196;28;20029;-61
2021/09/04 10:57:18;;;;;;;3.13;1.95;;;;;;;;;;5045025;28;20031;-61
2021/09/04 10:59:59;;;;;;;4.15;1.98;;;;;;;;;;5049197;28;20025;-61
2021/09/04 11:02:38;;;;;;;11.07;2.63;;;;;;;;;;5043190;28;20644;-61
2021/09/04 11:05:22;;;;;;;4.43;1.95;;;;;;;;;;5047358;28;20021;-61
2021/09/04 11:07:48;;;;;;;12.13;3.65;;;;;;;;;;5052200;28;20030;-59
2021/09/04 11:10:23;;;;;;;7.28;3.30;;;;;;;;;;5042313;28;20567;-61
2021/09/04 11:13:05;;;;;;;4.60;1.52;;;;;;;;;;5044240;28;20024;-61
2021/09/04 11:15:31;;;;;;;6.00;2.00;;;;;;;;;;5053079;28;20024;-61
2021/09/04 11:17:57;;;;;;;9.02;2.50;;;;;;;;;;5052973;28;20167;-61
2021/09/04 11:20:22;;;;;;;3.58;1.90;;;;;;;;;;5053296;28;20141;-61
2021/09/04 11:22:47;;;;;;;10.32;2.95;;;;;;;;;;5052576;28;20025;-61
2021/09/04 11:25:13;;;;;;;3.55;2.15;;;;;;;;;;5047749;28;20057;-61
2021/09/04 11:27:43;;;;;;;6.32;2.50;;;;;;;;;;5051496;28;20035;-61
2021/09/04 11:30:08;;;;;;;;;;;;;;;;;;5055349;28;20041;-61
2021/09/04 11:32:34;;;;;;;5.93;2.20;;;;;;;;;;5044060;28;19913;-61
2021/09/04 11:35:00;;;;;;;7.13;3.58;;;;;;;;;;5042286;28;20025;-61
2021/09/04 11:37:28;;;;;;;9.85;2.95;;;;;;;;;;5046935;28;20148;-61
2021/09/04 11:39:56;;;;;;;7.63;4.10;;;;;;;;;;5044673;28;20536;-60
2021/09/04 11:42:23;;;;;;;9.63;2.40;;;;;;;;;;5042871;28;20028;-60
2021/09/04 11:44:51;;;;;;;9.15;2.92;;;;;;;;;;5048817;28;20032;-61
2021/09/04 11:47:17;;;;;;;9.00;3.92;;;;;;;;;;5044778;28;20067;-61
2021/09/04 11:49:43;;;;;;;7.55;2.25;;;;;;;;;;5053555;28;20080;-61
2021/09/04 11:52:15;;;;;;;2.92;1.45;;;;;;;;;;5056009;28;20031;-61
2021/09/04 11:54:40;;;;;;;2.92;1.67;;;;;;;;;;5054125;28;20043;-61
2021/09/04 11:57:21;;;;;;;7.22;2.88;;;;;;;;;;5048543;28;20061;-63
2021/09/04 11:59:56;;;;;;;6.68;3.00;;;;;;;;;;5047320;28;20025;-63
2021/09/04 12:02:22;;;;;;;4.45;2.78;;;;;;;;;;5045616;28;20028;-63
2021/09/04 12:04:48;;;;;;;6.88;2.92;;;;;;;;;;5053246;28;20564;-63
2021/09/04 12:07:13;;;;;;;7.38;2.70;;;;;;;;;;5051984;28;20029;-63
2021/09/04 12:09:38;;;;;;;3.28;1.65;;;;;;;;;;5046382;28;20484;-63
2021/09/04 12:12:04;;;;;;;5.35;2.35;;;;;;;;;;5051125;28;20173;-62
2021/09/04 12:14:30;;;;;;;6.60;3.10;;;;;;;;;;5053590;28;20357;-63
2021/09/04 12:16:56;;;;;;;10.35;4.93;;;;;;;;;;5051371;28;20099;-63
2021/09/04 12:19:22;;;;;;;5.40;1.75;;;;;;;;;;5053129;28;20116;-63
2021/09/04 12:21:51;;;;;;;9.57;2.15;;;;;;;;;;5050326;28;20397;-63
2021/09/04 12:24:17;;;;;;;14.80;2.88;;;;;;;;;;5050336;28;20476;-63
2021/09/04 12:26:52;;;;;;;4.07;2.42;;;;;;;;;;5051472;28;20087;-63
2021/09/04 12:29:17;;;;;;;8.52;3.67;;;;;;;;;;5054951;28;20021;-63
2021/09/04 12:31:43;;;;;;;5.40;2.05;;;;;;;;;;5056537;28;20534;-63
2021/09/04 12:34:16;;;;;;;6.72;4.35;;;;;;;;;;5047906;28;20046;-63
2021/09/04 12:36:42;;;;;;;7.10;3.03;;;;;;;;;;5054229;28;20083;-64
2021/09/04 12:39:13;;;;;;;3.08;1.67;;;;;;;;;;5052913;28;20527;-63
2021/09/04 12:41:40;;;;;;;5.93;2.63;;;;;;;;;;5048232;28;20055;-63
2021/09/04 12:44:09;;;;;;;3.63;1.88;;;;;;;;;;5055044;28;20488;-63
2021/09/04 12:46:39;;;;;;;3.20;1.98;;;;;;;;;;5050107;28;20060;-63
2021/09/04 12:49:19;;;;;;;3.65;2.45;;;;;;;;;;5053380;28;20021;-63
2021/09/04 12:51:46;;;;;;;2.90;2.03;;;;;;;;;;5057646;28;20027;-64
2021/09/04 12:54:11;;;;;;;10.27;2.55;;;;;;;;;;5057522;28;20567;-63
2021/09/04 12:56:38;;;;;;;2.65;2.17;;;;;;;;;;5058092;28;20033;-63
2021/09/04 12:59:05;;;;;;;3.00;1.85;;;;;;;;;;5056652;28;20012;-62
2021/09/04 13:01:30;;;;;;;10.35;4.03;;;;;;;;;;5056436;28;20021;-63
2021/09/04 13:03:55;;;;;;;11.63;2.90;;;;;;;;;;5057693;28;20028;-63
2021/09/04 13:06:21;;;;;;;8.05;2.63;;;;;;;;;;5049580;28;20547;-68
2021/09/04 13:08:46;;;;;;;10.68;3.28;;;;;;;;;;5057313;28;20033;-62
2021/09/04 13:11:11;;;;;;;5.50;3.45;;;;;;;;;;5061179;28;20054;-63
2021/09/04 13:13:36;;;;;;;9.15;4.13;;;;;;;;;;5053442;28;20021;-63
2021/09/04 13:16:02;;;;;;;12.00;3.13;;;;;;;;;;5056713;28;20127;-63
2021/09/04 13:18:27;;;;;;;8.45;3.63;;;;;;;;;;5052575;28;20016;-62
2021/09/04 13:20:52;;;;;;;4.13;1.83;;;;;;;;;;5060920;28;20116;-63
2021/09/04 13:23:18;;;;;;;3.53;1.73;;;;;;;;;;5057389;28;20061;-63
2021/09/04 13:25:43;;;;;;;7.15;3.38;;;;;;;;;;5056959;28;20542;-63
2021/09/04 13:28:08;;;;;;;7.70;2.97;;;;;;;;;;5052805;28;20017;-63
2021/09/04 13:30:34;;;;;;;5.00;2.20;;;;;;;;;;5053577;28;20017;-63
2021/09/04 13:32:59;;;;;;;7.28;2.10;;;;;;;;;;5053957;28;20096;-63
2021/09/04 13:35:24;;;;;;;3.17;1.85;;;;;;;;;;5056139;28;20420;-61
2021/09/04 13:37:49;;;;;;;4.28;2.58;;;;;;;;;;5054898;28;20036;-63
2021/09/04 13:40:15;;;;;;;4.63;1.85;;;;;;;;;;5055859;28;20048;-63
2021/09/04 13:42:40;;;;;;;17.90;3.88;;;;;;;;;;5051528;28;20614;-62
2021/09/04 13:45:07;;;;;;;2.70;1.42;;;;;;;;;;5049189;28;20145;-64
2021/09/04 13:47:33;;;;;;;10.55;4.78;;;;;;;;;;5051281;28;20060;-65
2021/09/04 13:49:58;;;;;;;8.85;2.50;;;;;;;;;;5038943;28;20100;-64
2021/09/04 13:52:26;;;;;;;14.40;3.05;;;;;;;;;;5049383;28;20025;-65
2021/09/04 13:54:51;;;;;;;7.43;3.03;;;;;;;;;;5047453;28;20096;-65
2021/09/04 13:57:17;;;;;;;6.13;3.53;;;;;;;;;;5054754;28;20563;-65
2021/09/04 13:59:42;;;;;;;6.35;3.60;;;;;;;;;;5048932;28;20029;-65
2021/09/04 14:02:08;;;;;;;5.22;2.42;;;;;;;;;;5052417;28;20028;-65
2021/09/04 14:04:33;;;;;;;4.65;2.85;;;;;;;;;;5052969;28;20029;-65
2021/09/04 14:06:58;;;;;;;6.05;2.60;;;;;;;;;;5053176;28;20572;-65
2021/09/04 14:09:23;;;;;;;10.52;2.78;;;;;;;;;;5053205;28;20013;-64
2021/09/04 14:11:49;;;;;;;5.82;3.47;;;;;;;;;;5050714;28;20045;-65
2021/09/04 14:14:14;;;;;;;2.42;1.42;;;;;;;;;;5048905;28;20451;-65
2021/09/04 14:16:39;;;;;;;11.88;3.55;;;;;;;;;;5048187;28;20447;-65
2021/09/04 14:19:05;;;;;;;4.93;2.85;;;;;;;;;;5056492;28;20151;-64
2021/09/04 14:21:30;;;;;;;3.33;1.88;;;;;;;;;;5047364;28;20033;-64
2021/09/04 14:23:55;;;;;;;8.68;2.85;;;;;;;;;;5052173;28;20026;-64
2021/09/04 14:26:24;;;;;;;5.28;2.53;;;;;;;;;;5050402;28;20034;-65
2021/09/04 14:28:49;;;;;;;3.17;1.83;;;;;;;;;;5050725;28;20021;-64
2021/09/04 14:31:14;;;;;;;5.70;3.33;;;;;;;;;;5048658;28;20024;-64